Time;durP1;ratioP1;P1;durP2;ratioP2;P2;SDS_P1;SDS_P2;PMS_P1;PMS_P2;Temp;Humidity;BMP_temperature;BMP_pressure;BME280_temperature;BME280_humidity;BME280_pressure;Samples;Min_cycle;Max_cycle;Signal;HPM_P1;HPM_P2
2023/06/13 00:01:28;;;;;;;4.53;3.90;;;17.30;1.00;;;;;;5037042;28;20189;-80
2023/06/13 00:03:53;;;;;;;5.03;3.80;;;17.30;1.00;;;;;;5036428;28;20175;-79
2023/06/13 00:06:20;;;;;;;4.47;3.70;;;17.30;99.90;;;;;;5021413;28;20723;-81
2023/06/13 00:08:48;;;;;;;3.80;3.40;;;17.20;1.00;;;;;;5022754;28;20171;-82
2023/06/13 00:11:14;;;;;;;5.07;3.67;;;17.30;99.90;;;;;;5022570;28;20199;-80
2023/06/13 00:13:40;;;;;;;5.20;3.80;;;17.30;99.90;;;;;;5023070;28;20181;-81
2023/06/13 00:16:06;;;;;;;5.30;4.00;;;17.10;99.90;;;;;;5024436;28;20195;-82
2023/06/13 00:18:32;;;;;;;3.70;3.40;;;17.10;1.00;;;;;;5024579;28;20172;-81
2023/06/13 00:20:58;;;;;;;4.50;3.80;;;17.00;1.00;;;;;;5021817;28;20183;-81
2023/06/13 00:23:25;;;;;;;4.43;3.60;;;16.80;1.00;;;;;;5022376;28;20179;-81
2023/06/13 00:25:51;;;;;;;4.13;3.70;;;16.70;1.00;;;;;;5023343;28;20203;-81
2023/06/13 00:28:16;;;;;;;4.63;3.90;;;16.60;1.00;;;;;;5022687;28;20194;-82
2023/06/13 00:30:43;;;;;;;3.93;3.50;;;16.50;99.90;;;;;;5022894;28;20201;-81
2023/06/13 00:33:11;;;;;;;4.17;3.60;;;16.40;27.20;;;;;;5022032;28;20179;-81
2023/06/13 00:35:37;;;;;;;5.50;4.00;;;16.50;1.00;;;;;;5021715;28;20631;-82
2023/06/13 00:38:06;;;;;;;5.03;3.70;;;16.50;91.30;;;;;;5022861;28;20198;-82
2023/06/13 00:40:32;;;;;;;11.33;3.97;;;16.70;1.00;;;;;;5021815;28;20179;-81
2023/06/13 00:42:58;;;;;;;4.80;3.70;;;16.60;1.00;;;;;;5022233;28;20558;-82
2023/06/13 00:45:26;;;;;;;3.77;3.43;;;16.60;1.00;;;;;;5022866;28;20209;-80
2023/06/13 00:48:03;;;;;;;4.33;3.47;;;16.50;1.00;;;;;;5021900;28;20190;-82
2023/06/13 00:50:33;;;;;;;5.53;3.60;;;16.50;1.00;;;;;;5024423;28;20209;-82
2023/06/13 00:53:00;;;;;;;5.53;3.77;;;16.50;1.00;;;;;;5024676;28;20180;-80
2023/06/13 00:55:26;;;;;;;4.20;3.80;;;16.30;1.00;;;;;;5022927;28;20704;-81
2023/06/13 00:57:55;;;;;;;3.97;3.57;;;16.20;99.90;;;;;;5022493;28;20179;-80
2023/06/13 01:00:26;;;;;;;4.83;3.83;;;16.20;1.00;;;;;;5020637;28;20187;-81
2023/06/13 01:02:57;;;;;;;4.20;3.43;;;16.00;99.90;;;;;;5020997;28;20187;-81
2023/06/13 01:05:28;;;;;;;4.83;3.80;;;15.90;94.20;;;;;;5020801;28;20203;-81
2023/06/13 01:07:57;;;;;;;4.93;4.10;;;15.90;99.90;;;;;;5022212;28;20171;-81
2023/06/13 01:10:24;;;;;;;4.50;4.03;;;15.90;99.90;;;;;;5020865;28;20206;-81
2023/06/13 01:13:09;;;;;;;6.00;3.57;;;15.80;99.90;;;;;;5021061;28;20171;-81
2023/06/13 01:15:42;;;;;;;5.07;3.87;;;15.90;99.90;;;;;;5022544;28;20190;-81
2023/06/13 01:18:10;;;;;;;5.13;3.70;;;16.00;99.90;;;;;;5021283;28;20175;-81
2023/06/13 01:20:37;;;;;;;5.20;3.73;;;15.90;99.90;;;;;;5021194;28;20179;-81
2023/06/13 01:23:30;;;;;;;5.03;4.10;;;16.00;99.90;;;;;;5021394;28;20665;-82
2023/06/13 01:26:08;;;;;;;3.90;3.60;;;15.90;99.90;;;;;;5010717;28;20265;-81
2023/06/13 01:28:35;;;;;;;4.50;3.77;;;15.80;99.90;;;;;;5020481;28;20175;-81
2023/06/13 01:31:07;;;;;;;4.93;4.00;;;15.80;99.90;;;;;;5021380;28;20208;-81
2023/06/13 01:33:34;;;;;;;6.40;4.37;;;15.70;99.90;;;;;;5019911;28;20198;-81
2023/06/13 01:35:59;;;;;;;5.43;3.80;;;15.60;99.90;;;;;;5019564;28;20223;-83
2023/06/13 01:38:25;;;;;;;4.40;3.53;;;15.60;99.90;;;;;;5021519;28;20182;-81
2023/06/13 01:41:03;;;;;;;3.80;3.50;;;15.40;99.90;;;;;;5021269;28;20182;-81
2023/06/13 01:43:28;;;;;;;4.70;3.50;;;15.40;99.90;;;;;;5020158;28;20179;-81
2023/06/13 01:46:07;;;;;;;4.10;3.67;;;15.30;99.90;;;;;;5021524;28;20195;-81
2023/06/13 01:48:45;;;;;;;6.43;3.90;;;15.30;99.90;;;;;;5020620;28;20178;-81
2023/06/13 01:51:22;;;;;;;4.27;3.50;;;15.40;1.00;;;;;;5020193;28;20681;-81
2023/06/13 01:54:02;;;;;;;3.60;3.30;;;15.20;99.90;;;;;;5020000;28;20202;-81
2023/06/13 01:56:31;;;;;;;6.47;3.77;;;15.20;1.00;;;;;;5020117;28;20305;-81
2023/06/13 01:59:02;;;;;;;4.23;3.40;;;15.10;1.00;;;;;;5020921;28;20175;-81
2023/06/13 02:01:32;;;;;;;4.57;3.57;;;14.70;1.00;;;;;;5021233;28;20183;-81
2023/06/13 02:04:01;;;;;;;4.10;3.60;;;14.60;1.00;;;;;;5021173;28;20186;-80
2023/06/13 02:06:29;;;;;;;4.30;3.73;;;14.40;21.60;;;;;;5020024;28;20271;-81
2023/06/13 02:08:56;;;;;;;4.90;3.57;;;14.40;1.00;;;;;;5021383;28;20205;-81
2023/06/13 02:11:22;;;;;;;4.47;3.70;;;14.50;99.90;;;;;;5019873;28;20202;-81
2023/06/13 02:13:49;;;;;;;4.40;3.70;;;14.40;99.90;;;;;;5019978;28;20179;-81
2023/06/13 02:16:17;;;;;;;4.27;3.87;;;14.30;1.00;;;;;;5021227;28;20187;-82
2023/06/13 02:18:43;;;;;;;4.10;3.70;;;14.50;1.00;;;;;;5020314;28;20190;-81
2023/06/13 02:21:09;;;;;;;4.27;3.70;;;14.50;99.90;;;;;;5021708;28;20209;-81
2023/06/13 02:23:34;;;;;;;4.07;3.67;;;14.30;32.70;;;;;;5019783;28;20187;-81
2023/06/13 02:26:00;;;;;;;4.27;3.87;;;14.20;99.90;;;;;;5021490;28;20202;-81
2023/06/13 02:28:25;;;;;;;5.10;3.70;;;14.10;1.00;;;;;;5019827;28;20178;-83
2023/06/13 02:30:52;;;;;;;4.10;3.70;;;14.20;1.00;;;;;;5021492;28;20237;-81
2023/06/13 02:33:18;;;;;;;4.00;3.60;;;14.10;1.00;;;;;;5021032;28;20185;-82
2023/06/13 02:35:45;;;;;;;3.80;3.50;;;14.10;1.00;;;;;;5020518;28;20598;-82
2023/06/13 02:38:11;;;;;;;4.03;3.47;;;14.10;53.30;;;;;;5020571;28;20181;-80
2023/06/13 02:40:40;;;;;;;3.97;3.57;;;14.00;1.00;;;;;;5020991;28;20179;-81
2023/06/13 02:43:06;;;;;;;4.63;3.43;;;13.90;1.00;;;;;;5021046;28;20203;-81
2023/06/13 02:45:32;;;;;;;4.03;3.37;;;14.00;1.00;;;;;;5020994;28;20206;-81
2023/06/13 02:47:58;;;;;;;4.30;3.40;;;13.80;1.00;;;;;;5019905;28;20195;-82
2023/06/13 02:50:23;;;;;;;4.83;3.70;;;13.70;99.90;;;;;;5020089;28;20207;-81
2023/06/13 02:52:49;;;;;;;3.40;3.10;;;13.70;99.90;;;;;;5019675;28;20242;-81
2023/06/13 02:55:15;;;;;;;3.50;3.20;;;13.70;1.00;;;;;;5019784;28;20211;-81
2023/06/13 02:57:41;;;;;;;3.87;3.23;;;13.60;99.90;;;;;;5019767;28;20163;-81
2023/06/13 03:00:09;;;;;;;5.37;3.57;;;13.50;99.90;;;;;;5020188;28;20175;-81
2023/06/13 03:02:38;;;;;;;4.27;3.67;;;13.50;1.00;;;;;;5020307;28;20186;-81
2023/06/13 03:05:06;;;;;;;4.30;3.27;;;13.60;1.00;;;;;;5021621;28;20584;-82
2023/06/13 03:07:32;;;;;;;5.60;3.80;;;13.70;1.00;;;;;;5020031;28;20171;-82
2023/06/13 03:10:00;;;;;;;4.10;3.60;;;13.80;1.00;;;;;;5019717;28;20229;-81
2023/06/13 03:12:26;;;;;;;3.93;3.23;;;13.60;8.90;;;;;;5020250;28;20529;-81
2023/06/13 03:14:52;;;;;;;3.50;3.20;;;13.60;1.00;;;;;;5020507;28;20221;-83
2023/06/13 03:17:17;;;;;;;4.50;3.43;;;13.50;36.40;;;;;;5020625;28;20175;-82
2023/06/13 03:19:43;;;;;;;4.30;3.13;;;13.60;99.90;;;;;;5019840;28;20171;-82
2023/06/13 03:22:13;;;;;;;3.47;3.17;;;13.60;41.60;;;;;;5020293;28;20175;-81
2023/06/13 03:24:40;;;;;;;3.83;3.53;;;13.50;99.90;;;;;;5021367;28;20680;-81
2023/06/13 03:27:06;;;;;;;3.67;3.37;;;13.50;99.90;;;;;;5019811;28;20175;-81
2023/06/13 03:29:32;;;;;;;4.30;3.33;;;13.40;54.80;;;;;;5021042;28;20175;-81
2023/06/13 03:31:58;;;;;;;4.00;3.37;;;13.50;99.90;;;;;;5024433;28;20217;-80
2023/06/13 03:34:28;;;;;;;4.17;3.40;;;13.60;1.00;;;;;;5025400;28;20182;-81
2023/06/13 03:36:54;;;;;;;4.30;3.57;;;13.60;1.00;;;;;;5022998;28;20556;-82
2023/06/13 03:39:20;;;;;;;3.87;3.50;;;13.60;1.00;;;;;;5024833;28;20226;-81
2023/06/13 03:41:45;;;;;;;3.53;3.17;;;13.60;1.00;;;;;;5023388;28;20235;-81
2023/06/13 03:44:11;;;;;;;4.17;3.60;;;13.50;1.00;;;;;;5023256;28;20183;-80
2023/06/13 03:46:37;;;;;;;3.90;3.50;;;13.50;1.00;;;;;;5023877;28;20179;-81
2023/06/13 03:49:02;;;;;;;7.23;3.70;;;13.50;22.60;;;;;;5024016;28;20175;-81
2023/06/13 03:51:28;;;;;;;4.10;3.70;;;13.30;1.00;;;;;;5023380;28;20207;-81
2023/06/13 03:53:54;;;;;;;4.00;3.50;;;13.30;99.90;;;;;;5023802;28;20270;-82
2023/06/13 03:56:19;;;;;;;4.43;3.07;;;13.40;18.60;;;;;;5023801;28;20218;-83
2023/06/13 03:58:45;;;;;;;3.43;3.13;;;13.10;1.00;;;;;;5023097;28;20178;-81
2023/06/13 04:01:11;;;;;;;4.90;3.53;;;13.00;1.00;;;;;;5023706;28;20179;-81
2023/06/13 04:03:39;;;;;;;4.27;3.70;;;13.00;1.00;;;;;;5023354;28;20265;-82
2023/06/13 04:06:06;;;;;;;3.77;3.37;;;13.00;1.00;;;;;;5023798;28;20249;-81
2023/06/13 04:08:31;;;;;;;4.03;3.30;;;12.90;1.00;;;;;;5023898;28;20242;-81
2023/06/13 04:10:57;;;;;;;4.53;3.30;;;13.10;99.90;;;;;;5023573;28;20231;-81
2023/06/13 04:13:22;;;;;;;5.60;3.40;;;13.00;99.90;;;;;;5023306;28;20178;-81
2023/06/13 04:15:48;;;;;;;3.53;3.20;;;12.80;1.00;;;;;;5025175;28;20198;-82
2023/06/13 04:18:17;;;;;;;4.10;3.70;;;13.00;1.00;;;;;;5024162;28;20171;-81
2023/06/13 04:20:43;;;;;;;4.73;3.40;;;13.10;99.90;;;;;;5025025;28;20178;-82
2023/06/13 04:23:08;;;;;;;3.50;3.20;;;13.20;1.00;;;;;;5023743;28;20198;-83
2023/06/13 04:25:35;;;;;;;4.30;3.20;;;13.20;1.00;;;;;;5025035;28;20221;-81
2023/06/13 04:28:02;;;;;;;3.60;3.30;;;13.40;1.00;;;;;;5025433;28;20178;-82
2023/06/13 04:30:28;;;;;;;4.30;3.20;;;13.50;99.90;;;;;;5026010;28;20202;-81
2023/06/13 04:32:57;;;;;;;4.33;3.50;;;13.40;99.90;;;;;;5025050;28;20171;-81
2023/06/13 04:35:26;;;;;;;5.00;3.80;;;13.60;99.90;;;;;;5023551;28;20198;-81
2023/06/13 04:37:52;;;;;;;4.63;3.40;;;13.70;99.90;;;;;;5022963;28;20225;-80
2023/06/13 04:40:18;;;;;;;3.80;3.40;;;13.60;1.00;;;;;;5015453;28;20183;-83
2023/06/13 04:42:51;;;;;;;4.40;3.50;;;13.50;99.90;;;;;;5016304;28;20177;-82
2023/06/13 04:45:20;;;;;;;5.37;3.83;;;13.50;1.00;;;;;;5018163;28;20195;-83
2023/06/13 04:47:48;;;;;;;4.00;3.60;;;13.50;1.00;;;;;;5017670;28;20167;-83
2023/06/13 04:50:14;;;;;;;5.20;3.60;;;13.60;1.00;;;;;;5016080;28;20206;-83
2023/06/13 04:52:40;;;;;;;4.23;3.83;;;13.60;1.00;;;;;;5017566;28;20208;-83
2023/06/13 04:55:06;;;;;;;7.77;4.37;;;13.70;99.90;;;;;;5016705;28;20297;-82
2023/06/13 04:57:32;;;;;;;4.47;4.07;;;13.70;99.90;;;;;;5017046;28;20198;-83
2023/06/13 05:00:01;;;;;;;4.90;4.40;;;13.70;99.90;;;;;;5015749;28;20178;-84
2023/06/13 05:02:27;;;;;;;4.43;4.03;;;13.80;99.90;;;;;;5017559;28;20175;-84
2023/06/13 05:04:52;;;;;;;5.53;4.53;;;13.80;99.90;;;;;;5017352;28;20666;-82
2023/06/13 05:07:19;;;;;;;7.50;4.30;;;13.90;97.60;;;;;;5019767;28;20187;-83
2023/06/13 05:09:45;;;;;;;6.10;4.13;;;14.00;99.90;;;;;;5018673;28;20289;-79
2023/06/13 05:12:12;;;;;;;4.60;4.20;;;14.00;1.00;;;;;;5018791;28;20175;-80
2023/06/13 05:14:39;;;;;;;6.77;4.57;;;14.10;1.00;;;;;;5019004;28;20670;-81
2023/06/13 05:17:06;;;;;;;5.43;4.13;;;14.10;1.00;;;;;;5019464;28;20266;-81
2023/06/13 05:19:34;;;;;;;4.73;4.07;;;14.30;1.00;;;;;;5019992;28;20175;-80
2023/06/13 05:22:05;;;;;;;5.30;4.10;;;14.30;9.60;;;;;;5015949;28;20190;-83
2023/06/13 05:24:31;;;;;;;3.93;3.53;;;14.50;1.00;;;;;;5016735;28;20217;-83
2023/06/13 05:26:57;;;;;;;6.53;3.60;;;15.10;1.00;;;;;;5016833;28;20543;-83
2023/06/13 05:29:23;;;;;;;5.37;3.77;;;15.70;1.00;;;;;;5014652;28;20271;-83
2023/06/13 05:31:49;;;;;;;4.97;3.60;;;16.20;1.00;;;;;;5015602;28;20199;-80
2023/06/13 05:34:14;;;;;;;5.57;3.30;;;16.60;1.00;;;;;;5015415;28;20199;-81
2023/06/13 05:36:40;;;;;;;5.90;3.73;;;17.00;99.90;;;;;;5016329;28;20175;-81
2023/06/13 05:39:07;;;;;;;4.83;3.50;;;17.30;1.00;;;;;;5016833;28;20630;-81
2023/06/13 05:41:33;;;;;;;4.30;3.87;;;17.40;1.00;;;;;;5016238;28;20225;-80
2023/06/13 05:43:59;;;;;;;6.03;3.60;;;17.50;1.00;;;;;;5018628;28;20175;-80
2023/06/13 05:46:25;;;;;;;5.40;3.70;;;17.70;1.00;;;;;;5015016;28;20225;-81
2023/06/13 05:48:51;;;;;;;4.17;3.50;;;17.70;1.00;;;;;;5016186;28;20266;-79
2023/06/13 05:51:16;;;;;;;5.67;3.60;;;17.80;99.90;;;;;;5016230;28;20578;-79
2023/06/13 05:53:42;;;;;;;5.83;3.83;;;17.90;99.90;;;;;;5015686;28;20198;-81
2023/06/13 05:56:07;;;;;;;6.47;4.00;;;18.00;99.90;;;;;;5060766;22;20224;-78
2023/06/13 05:58:34;;;;;;;4.47;3.57;;;18.10;99.90;;;;;;5030955;28;20185;-78
2023/06/13 06:01:03;;;;;;;4.40;3.87;;;18.10;99.90;;;;;;5040467;28;20166;-78
2023/06/13 06:03:29;;;;;;;4.97;3.97;;;18.00;1.00;;;;;;5018001;28;20181;-78
2023/06/13 06:05:55;;;;;;;4.20;3.67;;;18.00;99.90;;;;;;5036165;28;20194;-78
2023/06/13 06:08:20;;;;;;;4.43;3.90;;;18.10;99.90;;;;;;5018044;28;20174;-78
2023/06/13 06:10:46;;;;;;;4.60;3.70;;;18.20;99.90;;;;;;5018059;28;20202;-78
2023/06/13 06:13:11;;;;;;;4.00;3.60;;;18.20;99.90;;;;;;5017905;28;20170;-78
2023/06/13 06:15:37;;;;;;;4.93;4.43;;;18.30;99.90;;;;;;5035222;28;20190;-79
2023/06/13 06:18:03;;;;;;;4.40;4.00;;;18.30;1.00;;;;;;5016815;28;20174;-78
2023/06/13 06:20:29;;;;;;;5.50;3.97;;;18.10;99.90;;;;;;5016754;28;20564;-78
2023/06/13 06:22:54;;;;;;;4.37;3.73;;;18.00;99.90;;;;;;5034875;28;20261;-76
2023/06/13 06:25:20;;;;;;;4.53;4.07;;;17.80;1.00;;;;;;5044212;28;20209;-77
2023/06/13 06:27:46;;;;;;;4.77;4.27;;;17.70;99.90;;;;;;5034963;28;20618;-78
2023/06/13 06:30:13;;;;;;;5.27;4.13;;;17.70;99.90;;;;;;5034212;28;20225;-77
2023/06/13 06:32:39;;;;;;;5.87;4.37;;;17.70;99.90;;;;;;5016840;28;20599;-78
2023/06/13 06:35:05;;;;;;;7.03;4.17;;;17.70;99.90;;;;;;5034604;28;20730;-78
2023/06/13 06:37:31;;;;;;;6.63;4.30;;;17.80;98.70;;;;;;5016803;28;20170;-78
2023/06/13 06:39:57;;;;;;;4.30;3.90;;;17.90;1.00;;;;;;5016751;28;20174;-78
2023/06/13 06:42:22;;;;;;;5.37;3.67;;;18.00;78.60;;;;;;5034567;28;20170;-78
2023/06/13 06:44:48;;;;;;;5.67;3.90;;;18.10;1.00;;;;;;5035188;28;20244;-78
2023/06/13 06:47:14;;;;;;;3.97;3.57;;;18.20;1.00;;;;;;5016764;28;20178;-78
2023/06/13 06:49:41;;;;;;;4.63;3.50;;;18.30;99.90;;;;;;5033499;28;20170;-77
2023/06/13 06:52:07;;;;;;;4.47;3.60;;;18.40;99.90;;;;;;5016536;28;20244;-78
2023/06/13 06:54:32;;;;;;;4.20;3.63;;;18.40;99.90;;;;;;5016666;28;20170;-78
2023/06/13 06:56:58;;;;;;;4.03;3.53;;;18.50;1.00;;;;;;5016512;28;20210;-78
2023/06/13 06:59:24;;;;;;;3.73;3.17;;;18.70;1.00;;;;;;5017034;28;20176;-77
2023/06/13 07:01:50;;;;;;;3.43;3.07;;;18.80;1.00;;;;;;5016814;28;20220;-77
2023/06/13 07:04:16;;;;;;;5.63;3.50;;;19.00;24.60;;;;;;5020121;28;20178;-77
2023/06/13 07:06:42;;;;;;;4.77;3.70;;;19.20;1.00;;;;;;5038758;28;20580;-77
2023/06/13 07:09:10;;;;;;;3.67;3.30;;;19.30;98.50;;;;;;5020535;28;20181;-77
2023/06/13 07:11:35;;;;;;;3.60;3.30;;;19.40;1.00;;;;;;5020259;28;20289;-77
2023/06/13 07:14:01;;;;;;;4.40;3.40;;;19.50;1.00;;;;;;5020796;28;20198;-77
2023/06/13 07:16:27;;;;;;;4.63;3.00;;;19.70;1.00;;;;;;5020780;28;20190;-77
2023/06/13 07:18:52;;;;;;;3.33;3.03;;;19.90;99.90;;;;;;5038578;28;20171;-77
2023/06/13 07:21:18;;;;;;;5.03;3.50;;;20.00;99.90;;;;;;5037923;28;20227;-77
2023/06/13 07:23:44;;;;;;;3.45;2.88;;;20.10;99.90;;;;;;5038381;28;20186;-78
2023/06/13 07:26:11;;;;;;;4.70;3.03;;;20.10;99.90;;;;;;5021036;28;20194;-77
2023/06/13 07:28:37;;;;;;;5.05;2.90;;;20.20;99.90;;;;;;5038454;28;20179;-77
2023/06/13 07:31:03;;;;;;;3.58;3.28;;;20.40;99.90;;;;;;5020026;28;20216;-77
2023/06/13 07:33:28;;;;;;;4.57;3.10;;;20.60;99.90;;;;;;5020438;28;20167;-77
2023/06/13 07:35:56;;;;;;;3.25;2.90;;;20.60;99.90;;;;;;5036862;28;20197;-78
2023/06/13 07:38:21;;;;;;;4.38;2.95;;;20.70;99.90;;;;;;5018867;28;20217;-77
2023/06/13 07:40:47;;;;;;;3.97;3.03;;;20.80;99.90;;;;;;5037959;28;20182;-76
2023/06/13 07:43:12;;;;;;;3.70;3.30;;;20.80;99.90;;;;;;5037581;28;20554;-77
2023/06/13 07:45:38;;;;;;;3.28;2.90;;;20.80;99.90;;;;;;5037294;28;20664;-77
2023/06/13 07:48:04;;;;;;;3.55;2.90;;;21.00;99.90;;;;;;5036758;28;20273;-77
2023/06/13 07:50:29;;;;;;;4.53;3.10;;;21.00;99.90;;;;;;5019378;28;20210;-77
2023/06/13 07:52:55;;;;;;;3.30;3.00;;;21.10;99.90;;;;;;5037800;28;20196;-77
2023/06/13 07:55:21;;;;;;;3.50;2.88;;;21.30;99.90;;;;;;5019221;28;20202;-77
2023/06/13 07:57:47;;;;;;;4.70;3.17;;;21.30;99.90;;;;;;5019812;28;20167;-78
2023/06/13 08:00:16;;;;;;;3.63;3.10;;;21.40;99.90;;;;;;5036840;28;20189;-77
2023/06/13 08:02:42;;;;;;;4.22;3.42;;;21.40;99.90;;;;;;5037770;28;20175;-77
2023/06/13 08:05:08;;;;;;;4.60;3.10;;;21.40;99.90;;;;;;5036951;28;20198;-78
2023/06/13 08:07:34;;;;;;;3.33;3.00;;;21.40;99.90;;;;;;5019507;28;20178;-77
2023/06/13 08:09:59;;;;;;;5.72;3.20;;;21.50;99.90;;;;;;5019680;28;20206;-78
2023/06/13 08:12:25;;;;;;;3.28;2.97;;;21.60;99.90;;;;;;5019235;28;20629;-77
2023/06/13 08:14:51;;;;;;;4.13;3.38;;;21.70;99.90;;;;;;5018548;28;20169;-75
2023/06/13 08:17:16;;;;;;;3.63;2.95;;;21.80;99.90;;;;;;5019338;28;20232;-77
2023/06/13 08:19:42;;;;;;;4.55;3.17;;;21.90;99.90;;;;;;5036350;28;20167;-77
2023/06/13 08:22:07;;;;;;;3.65;3.20;;;21.90;99.90;;;;;;5018712;28;20166;-77
2023/06/13 08:24:33;;;;;;;3.70;3.15;;;22.00;99.90;;;;;;5018484;28;20664;-77
2023/06/13 08:26:59;;;;;;;4.03;3.42;;;22.00;99.90;;;;;;5018785;28;20190;-78
2023/06/13 08:29:28;;;;;;;5.45;3.13;;;22.10;99.90;;;;;;5036851;28;20178;-78
2023/06/13 08:31:54;;;;;;;4.63;3.20;;;22.00;99.90;;;;;;5036355;28;20285;-77
2023/06/13 08:34:20;;;;;;;5.10;3.00;;;22.20;99.90;;;;;;5018490;28;20213;-77
2023/06/13 08:36:46;;;;;;;4.03;3.10;;;22.40;99.90;;;;;;5019185;28;20194;-75
2023/06/13 08:39:12;;;;;;;3.00;2.67;;;22.50;99.90;;;;;;5019007;28;20565;-78
2023/06/13 08:41:40;;;;;;;4.35;3.15;;;22.60;99.90;;;;;;5036665;28;20178;-77
2023/06/13 08:44:07;;;;;;;2.92;2.70;;;22.60;99.90;;;;;;5036634;28;20194;-75
2023/06/13 08:46:34;;;;;;;3.42;3.05;;;22.50;99.90;;;;;;5036672;28;20194;-78
2023/06/13 08:49:00;;;;;;;4.10;3.20;;;22.80;99.90;;;;;;5036477;28;20609;-78
2023/06/13 08:51:30;;;;;;;4.40;3.10;;;23.00;99.90;;;;;;5041620;28;20300;-78
2023/06/13 08:54:05;;;;;;;4.45;3.03;;;23.00;99.90;;;;;;5023868;28;20205;-78
2023/06/13 08:56:40;;;;;;;4.63;3.17;;;22.80;99.90;;;;;;5035981;28;20205;-78
2023/06/13 08:59:17;;;;;;;3.60;3.08;;;22.90;99.90;;;;;;5036619;28;20233;-78
2023/06/13 09:01:44;;;;;;;4.28;2.80;;;23.20;99.90;;;;;;5036329;28;20205;-77
2023/06/13 09:04:11;;;;;;;3.25;2.83;;;23.40;99.90;;;;;;5036349;28;20181;-78
2023/06/13 09:06:37;;;;;;;4.32;3.15;;;23.60;99.90;;;;;;5018835;28;20248;-77
2023/06/13 09:09:07;;;;;;;4.03;3.47;;;23.60;99.90;;;;;;5036434;28;20170;-77
2023/06/13 09:11:36;;;;;;;4.10;3.00;;;23.60;99.90;;;;;;5036319;28;20261;-77
2023/06/13 09:14:06;;;;;;;5.18;3.35;;;23.60;99.90;;;;;;5036713;28;20170;-77
2023/06/13 09:16:33;;;;;;;6.57;3.40;;;23.70;99.90;;;;;;5036375;28;20244;-78
2023/06/13 09:18:59;;;;;;;3.40;3.10;;;24.00;99.90;;;;;;5018490;28;20197;-78
2023/06/13 09:21:25;;;;;;;3.45;3.15;;;24.10;99.90;;;;;;5018083;28;20242;-78
2023/06/13 09:23:54;;;;;;;4.95;3.20;;;24.10;99.90;;;;;;5018680;28;20178;-78
2023/06/13 09:26:20;;;;;;;4.05;3.17;;;24.10;99.90;;;;;;5035084;28;20195;-78
2023/06/13 09:28:47;;;;;;;3.92;3.00;;;24.10;99.90;;;;;;5017481;28;20178;-78
2023/06/13 09:31:13;;;;;;;3.70;3.30;;;24.30;99.90;;;;;;5035323;28;20660;-77
2023/06/13 09:33:39;;;;;;;3.42;3.13;;;24.30;99.90;;;;;;5035411;28;20170;-77
2023/06/13 09:36:06;;;;;;;5.97;3.05;;;24.40;99.90;;;;;;5017592;28;20190;-78
2023/06/13 09:38:36;;;;;;;4.28;3.08;;;24.60;99.90;;;;;;5017771;28;20171;-78
2023/06/13 09:41:03;;;;;;;4.50;3.30;;;24.70;99.90;;;;;;5035421;28;20178;-78
2023/06/13 09:43:29;;;;;;;5.80;3.20;;;24.80;99.90;;;;;;5017925;28;20240;-76
2023/06/13 09:45:55;;;;;;;3.63;3.25;;;24.90;99.90;;;;;;5035506;28;20190;-77
2023/06/13 09:48:22;;;;;;;3.92;3.17;;;25.10;99.90;;;;;;5035714;28;20174;-78
2023/06/13 09:50:49;;;;;;;4.28;3.38;;;25.20;99.90;;;;;;5034621;28;20198;-78
2023/06/13 09:53:15;;;;;;;5.25;3.45;;;25.00;99.90;;;;;;5017525;28;20170;-77
2023/06/13 09:55:41;;;;;;;5.35;3.17;;;24.90;99.90;;;;;;5017334;28;20669;-77
2023/06/13 09:58:06;;;;;;;5.20;3.20;;;25.10;99.90;;;;;;5035427;28;20257;-78
2023/06/13 10:00:32;;;;;;;3.83;3.05;;;25.10;99.90;;;;;;5034883;28;20244;-78
2023/06/13 10:02:59;;;;;;;6.10;3.30;;;25.50;99.90;;;;;;5018240;28;20174;-78
2023/06/13 10:05:25;;;;;;;4.63;2.97;;;25.40;99.90;;;;;;5034760;28;20201;-78
2023/06/13 10:07:52;;;;;;;5.95;3.28;;;25.50;99.90;;;;;;5017724;28;20174;-79
2023/06/13 10:10:18;;;;;;;3.90;3.25;;;25.50;99.90;;;;;;5017051;28;20202;-78
2023/06/13 10:12:53;;;;;;;3.33;3.03;;;26.00;99.90;;;;;;5035224;28;20174;-78
2023/06/13 10:15:32;;;;;;;3.85;3.03;;;26.10;99.90;;;;;;5035833;28;20228;-78
2023/06/13 10:18:02;;;;;;;3.53;3.22;;;26.00;99.90;;;;;;5018009;28;20180;-77
2023/06/13 10:20:29;;;;;;;5.15;3.30;;;25.80;99.90;;;;;;5016924;28;20557;-77
2023/06/13 10:22:57;;;;;;;4.15;3.20;;;26.00;99.90;;;;;;5035048;28;20594;-78
2023/06/13 10:25:27;;;;;;;4.93;3.60;;;25.80;99.80;;;;;;5034032;28;20197;-78
2023/06/13 10:27:55;;;;;;;3.72;3.22;;;26.10;99.60;;;;;;5015678;28;20564;-77
2023/06/13 10:30:40;;;;;;;3.65;3.17;;;26.50;99.90;;;;;;5015910;28;20568;-78
2023/06/13 10:33:24;;;;;;;5.13;3.00;;;26.20;90.10;;;;;;5016238;28;20174;-80
2023/06/13 10:36:08;;;;;;;4.95;3.17;;;26.00;87.50;;;;;;5033344;28;20729;-83
2023/06/13 10:38:53;;;;;;;4.75;3.22;;;26.20;87.30;;;;;;5032465;28;20175;-78
2023/06/13 10:41:49;;;;;;;4.18;3.40;;;26.30;87.20;;;;;;5015294;28;20542;-77
2023/06/13 10:44:42;;;;;;;3.50;3.03;;;26.60;80.70;;;;;;5032942;28;20182;-77
2023/06/13 10:47:08;;;;;;;5.22;3.20;;;26.80;80.20;;;;;;5032755;28;20216;-78
2023/06/13 10:49:39;;;;;;;3.58;3.00;;;27.00;72.40;;;;;;5032913;28;20660;-78
2023/06/13 10:52:09;;;;;;;3.72;2.92;;;27.20;64.30;;;;;;5032344;28;20201;-78
2023/06/13 10:54:35;;;;;;;4.05;3.00;;;27.30;58.40;;;;;;5017181;28;20166;-82
2023/06/13 10:57:01;;;;;;;3.83;3.20;;;27.40;56.10;;;;;;5016544;28;20210;-82
2023/06/13 10:59:35;;;;;;;3.50;3.20;;;27.50;57.40;;;;;;5033785;28;20166;-84
2023/06/13 11:02:01;;;;;;;3.60;3.30;;;27.50;52.70;;;;;;5016462;28;20699;-83
2023/06/13 11:04:28;;;;;;;3.40;3.10;;;27.70;50.20;;;;;;5017022;28;20178;-83
2023/06/13 11:07:23;;;;;;;3.50;3.13;;;27.50;43.10;;;;;;5034426;28;20218;-80
2023/06/13 11:10:04;;;;;;;3.95;2.85;;;27.60;33.10;;;;;;5034162;28;20236;-81
2023/06/13 11:12:30;;;;;;;3.38;3.05;;;28.00;34.10;;;;;;5017501;28;20193;-82
2023/06/13 11:15:03;;;;;;;3.20;2.90;;;28.10;28.30;;;;;;5034711;28;20701;-82
2023/06/13 11:17:28;;;;;;;3.10;2.80;;;27.70;24.10;;;;;;5017684;28;20171;-82
2023/06/13 11:19:56;;;;;;;4.22;3.03;;;27.60;20.40;;;;;;5035270;28;20178;-81
2023/06/13 11:22:22;;;;;;;3.10;2.80;;;27.30;16.50;;;;;;5016193;28;20257;-80
2023/06/13 11:24:48;;;;;;;4.75;3.17;;;27.50;17.30;;;;;;5034078;28;20206;-86
2023/06/13 11:27:16;;;;;;;4.18;2.97;;;27.50;13.50;;;;;;5032826;28;20198;-79
2023/06/13 11:29:45;;;;;;;5.70;3.08;;;27.40;11.30;;;;;;5014966;28;20167;-79
2023/06/13 11:32:12;;;;;;;3.47;2.80;;;27.70;11.40;;;;;;5015000;28;20177;-79
2023/06/13 11:34:48;;;;;;;3.17;2.80;;;27.70;11.80;;;;;;5032978;28;20185;-80
2023/06/13 11:37:45;;;;;;;3.30;3.00;;;28.10;10.60;;;;;;5032646;28;20532;-80
2023/06/13 11:40:26;;;;;;;5.72;2.92;;;28.40;10.20;;;;;;5032643;28;20188;-79
2023/06/13 11:42:52;;;;;;;3.00;2.50;;;28.70;6.60;;;;;;5014885;28;20201;-79
2023/06/13 11:45:22;;;;;;;5.80;3.08;;;28.80;5.50;;;;;;5014992;28;20202;-79
2023/06/13 11:47:57;;;;;;;4.00;3.03;;;28.30;1.90;;;;;;5015341;28;20182;-79
2023/06/13 11:50:25;;;;;;;5.70;2.95;;;28.40;1.00;;;;;;5034290;28;20596;-81
2023/06/13 11:53:03;;;;;;;4.03;2.90;;;28.90;2.80;;;;;;5036311;28;20171;-79
2023/06/13 11:55:29;;;;;;;6.13;3.25;;;29.10;1.00;;;;;;5037023;28;20206;-79
2023/06/13 11:57:56;;;;;;;3.63;2.83;;;28.90;1.00;;;;;;5018204;28;20248;-79
2023/06/13 12:00:26;;;;;;;3.20;2.88;;;28.90;1.00;;;;;;5017833;28;20170;-79
2023/06/13 12:02:55;;;;;;;4.32;3.10;;;28.70;1.00;;;;;;5035895;28;20189;-79
2023/06/13 12:05:22;;;;;;;4.68;2.70;;;29.30;1.00;;;;;;5017757;28;20289;-79
2023/06/13 12:07:49;;;;;;;3.65;3.00;;;29.30;1.00;;;;;;5035853;28;20174;-79
2023/06/13 12:10:15;;;;;;;3.60;2.75;;;29.20;1.00;;;;;;5035475;28;20206;-79
2023/06/13 12:12:41;;;;;;;3.15;2.85;;;29.60;1.00;;;;;;5017819;28;20189;-79
2023/06/13 12:15:13;;;;;;;2.72;2.53;;;29.20;1.00;;;;;;5035905;28;20190;-79
2023/06/13 12:18:00;;;;;;;4.55;3.08;;;29.20;1.00;;;;;;5018137;28;20182;-78
2023/06/13 12:20:29;;;;;;;4.85;3.17;;;29.40;1.00;;;;;;5017756;28;20166;-80
2023/06/13 12:22:58;;;;;;;4.28;3.10;;;29.30;1.00;;;;;;5035325;28;20258;-79
2023/06/13 12:25:27;;;;;;;3.03;2.75;;;29.30;1.00;;;;;;5035055;28;20229;-79
2023/06/13 12:27:55;;;;;;;3.38;2.85;;;29.20;1.00;;;;;;5035357;28;20660;-79
2023/06/13 12:30:21;;;;;;;3.40;2.88;;;29.60;1.00;;;;;;5035193;28;20214;-79
2023/06/13 12:32:48;;;;;;;3.10;2.80;;;29.90;1.00;;;;;;5017478;28;20181;-79
2023/06/13 12:35:20;;;;;;;4.20;2.78;;;30.20;1.00;;;;;;5035195;28;20683;-79
2023/06/13 12:37:54;;;;;;;3.95;2.88;;;30.20;1.00;;;;;;5035413;28;20233;-79
2023/06/13 12:40:29;;;;;;;4.68;2.95;;;29.70;1.00;;;;;;5018034;28;20176;-81
2023/06/13 12:42:56;;;;;;;2.78;2.58;;;29.70;1.00;;;;;;5019185;28;20172;-80
2023/06/13 12:45:22;;;;;;;3.47;2.83;;;30.10;1.00;;;;;;5036398;28;20661;-78
2023/06/13 12:47:47;;;;;;;3.17;2.88;;;30.00;1.00;;;;;;5018480;28;20188;-80
2023/06/13 12:50:13;;;;;;;3.53;2.67;;;29.80;1.00;;;;;;5036096;28;20297;-80
2023/06/13 12:52:39;;;;;;;3.42;3.13;;;30.30;1.00;;;;;;5035891;28;20261;-81
2023/06/13 12:55:05;;;;;;;3.30;3.00;;;30.10;1.00;;;;;;5035680;28;20195;-81